createdAt,value
2022-08-16T00:01:56.765Z,63.97
2022-08-16T00:04:29.152Z,63.85
2022-08-16T00:06:57.624Z,63.80
2022-08-16T00:09:26.410Z,63.97
2022-08-16T00:11:57.514Z,64.12
2022-08-16T00:14:30.387Z,64.06
2022-08-16T00:17:12.074Z,63.95
2022-08-16T00:19:56.533Z,63.80
2022-08-16T00:22:25.579Z,63.64
2022-08-16T00:24:57.521Z,63.56
2022-08-16T00:27:28.013Z,63.33
2022-08-16T00:30:08.304Z,63.26
2022-08-16T00:32:38.680Z,63.48
2022-08-16T00:35:09.905Z,63.48
2022-08-16T00:37:58.322Z,63.77
2022-08-16T00:40:34.510Z,64.15
2022-08-16T00:43:12.339Z,64.24
2022-08-16T00:45:59.976Z,64.30
2022-08-16T00:48:43.793Z,63.85
2022-08-16T00:51:16.137Z,64.19
2022-08-16T00:53:46.002Z,64.46
2022-08-16T00:56:55.889Z,64.90
2022-08-16T00:59:15.199Z,65.31
2022-08-16T01:01:45.395Z,65.32
2022-08-16T01:04:29.568Z,64.99
2022-08-16T01:07:01.447Z,65.35
2022-08-16T01:09:33.684Z,65.23
2022-08-16T01:12:08.615Z,65.24
2022-08-16T01:14:45.286Z,65.56
2022-08-16T01:17:18.782Z,65.65
2022-08-16T01:19:53.245Z,65.38
2022-08-16T01:22:49.928Z,65.29
2022-08-16T01:25:23.767Z,65.08
2022-08-16T01:28:05.944Z,65.48
2022-08-16T01:30:40.062Z,65.43
2022-08-16T01:33:19.369Z,65.74
2022-08-16T01:35:53.315Z,65.59
2022-08-16T01:38:25.825Z,65.49
2022-08-16T01:41:02.211Z,65.93
2022-08-16T01:43:31.693Z,65.84
2022-08-16T01:46:37.155Z,65.62
2022-08-16T01:48:50.107Z,65.65
2022-08-16T01:51:22.726Z,65.46
2022-08-16T01:53:54.540Z,65.08
2022-08-16T01:56:26.985Z,64.74
2022-08-16T01:58:57.917Z,64.60
2022-08-16T02:01:27.944Z,64.31
2022-08-16T02:03:58.543Z,64.26
2022-08-16T02:06:46.060Z,64.35
2022-08-16T02:09:17.677Z,63.99
2022-08-16T02:11:53.554Z,63.20
2022-08-16T02:14:26.353Z,62.90
2022-08-16T02:16:55.203Z,62.91
2022-08-16T02:19:59.813Z,62.75
2022-08-16T02:22:33.667Z,62.65
2022-08-16T02:25:14.715Z,62.78
2022-08-16T02:27:50.790Z,63.25
2022-08-16T02:30:37.274Z,63.84
2022-08-16T02:33:12.674Z,63.99
2022-08-16T02:35:49.819Z,64.65
2022-08-16T02:38:24.324Z,64.99
2022-08-16T02:40:54.588Z,66.13
2022-08-16T02:43:26.818Z,69.88
2022-08-16T02:45:55.747Z,71.76
2022-08-16T02:48:29.991Z,72.93
2022-08-16T02:51:10.105Z,75.31
2022-08-16T02:53:44.833Z,75.51
2022-08-16T02:56:15.640Z,74.44
2022-08-16T02:58:46.433Z,73.66
2022-08-16T03:01:25.208Z,73.87
2022-08-16T03:04:39.998Z,74.23
2022-08-16T03:06:56.813Z,74.45
2022-08-16T03:09:28.777Z,75.61
2022-08-16T03:11:58.666Z,76.60
2022-08-16T03:14:30.772Z,76.84
2022-08-16T03:17:00.884Z,75.73
2022-08-16T03:19:47.347Z,74.88
2022-08-16T03:22:18.887Z,73.96
2022-08-16T03:24:48.045Z,72.70
2022-08-16T03:27:16.769Z,71.79
2022-08-16T03:29:54.339Z,71.61
2022-08-16T03:32:23.202Z,71.93
2022-08-16T03:34:54.519Z,71.45
2022-08-16T03:37:22.891Z,71.70
2022-08-16T03:39:56.367Z,72.64
2022-08-16T03:42:24.882Z,72.62
2022-08-16T03:45:03.051Z,73.06
2022-08-16T03:47:34.104Z,72.79
2022-08-16T03:50:03.830Z,72.31
2022-08-16T03:52:52.789Z,71.99
2022-08-16T03:55:31.334Z,72.30
2022-08-16T03:58:14.066Z,72.55
2022-08-16T04:00:43.898Z,72.12
2022-08-16T04:03:12.251Z,71.85
2022-08-16T04:05:44.188Z,72.04
2022-08-16T04:08:23.417Z,71.82
2022-08-16T04:10:54.177Z,72.40
2022-08-16T04:13:59.298Z,72.79
2022-08-16T04:16:26.768Z,73.61
2022-08-16T04:19:02.589Z,73.64
2022-08-16T04:21:33.400Z,73.58
2022-08-16T04:24:07.953Z,73.44
2022-08-16T04:26:37.031Z,72.78
2022-08-16T04:29:23.566Z,72.48
2022-08-16T04:31:57.993Z,72.39
2022-08-16T04:34:28.883Z,73.54
2022-08-16T04:37:01.437Z,72.55
2022-08-16T04:39:45.831Z,71.12
2022-08-16T04:42:16.737Z,67.25
2022-08-16T04:44:54.510Z,65.59
2022-08-16T04:47:31.731Z,65.67
2022-08-16T04:50:01.720Z,66.24
2022-08-16T04:52:34.488Z,67.12
2022-08-16T04:55:06.758Z,68.96
2022-08-16T04:57:36.939Z,65.49
2022-08-16T05:00:32.395Z,62.62
2022-08-16T05:03:01.300Z,59.84
2022-08-16T05:05:32.868Z,56.62
2022-08-16T05:08:28.870Z,54.33
2022-08-16T05:11:00.112Z,52.98
2022-08-16T05:13:40.843Z,51.76
2022-08-16T05:16:20.262Z,49.46
2022-08-16T05:18:53.125Z,51.33
2022-08-16T05:21:22.234Z,53.26
2022-08-16T05:23:58.661Z,54.91
2022-08-16T05:26:30.532Z,55.75
2022-08-16T05:28:59.449Z,56.42
2022-08-16T05:31:30.394Z,56.97
2022-08-16T05:34:04.305Z,58.40
2022-08-16T05:36:34.123Z,59.97
2022-08-16T05:39:08.802Z,61.35
2022-08-16T05:41:45.464Z,61.15
2022-08-16T05:44:23.711Z,61.38
2022-08-16T05:46:55.874Z,61.67
2022-08-16T05:49:39.644Z,62.56
2022-08-16T05:52:10.842Z,63.17
2022-08-16T05:54:46.708Z,63.80
2022-08-16T05:57:16.020Z,63.91
2022-08-16T05:59:45.599Z,63.95
2022-08-16T06:02:15.344Z,63.79
2022-08-16T06:04:48.052Z,63.31
2022-08-16T06:07:26.364Z,62.98
2022-08-16T06:09:59.664Z,63.18
2022-08-16T06:12:29.064Z,63.51
2022-08-16T06:14:59.969Z,64.01
2022-08-16T06:17:43.854Z,65.07
2022-08-16T06:20:23.243Z,63.87
2022-08-16T06:23:03.699Z,63.12
2022-08-16T06:25:40.155Z,62.77
2022-08-16T06:28:16.964Z,61.99
2022-08-16T06:31:01.905Z,63.60
2022-08-16T06:33:53.278Z,63.71
2022-08-16T06:36:51.653Z,63.32
2022-08-16T06:39:28.064Z,63.11
2022-08-16T06:41:58.258Z,62.69
2022-08-16T06:44:27.081Z,62.83
2022-08-16T06:46:55.621Z,62.95
2022-08-16T06:49:23.993Z,62.60
2022-08-16T06:51:53.970Z,61.31
2022-08-16T06:54:31.266Z,60.77
2022-08-16T06:57:00.998Z,60.12
2022-08-16T06:59:29.913Z,60.14
2022-08-16T07:02:33.221Z,59.62
2022-08-16T07:05:02.114Z,59.82
2022-08-16T07:07:34.376Z,59.50
2022-08-16T07:10:08.845Z,59.16
2022-08-16T07:12:47.382Z,59.32
2022-08-16T07:15:26.519Z,59.19
2022-08-16T07:17:56.852Z,58.45
2022-08-16T07:20:35.594Z,58.49
2022-08-16T07:23:17.191Z,58.10
2022-08-16T07:25:46.558Z,57.87
2022-08-16T07:28:20.813Z,57.55
2022-08-16T07:30:53.051Z,57.16
2022-08-16T07:33:53.396Z,57.25
2022-08-16T07:36:12.368Z,57.24
2022-08-16T07:38:52.365Z,57.21
2022-08-16T07:41:20.960Z,57.33
2022-08-16T07:43:49.043Z,56.75
2022-08-16T07:46:37.446Z,56.01
2022-08-16T07:49:11.231Z,55.46
2022-08-16T07:51:40.490Z,55.30
2022-08-16T07:54:20.973Z,55.29
2022-08-16T07:56:49.838Z,55.83
2022-08-16T07:59:20.249Z,55.81
2022-08-16T08:01:49.555Z,55.73
2022-08-16T08:04:22.070Z,54.78
2022-08-16T08:06:51.499Z,54.85
2022-08-16T08:09:21.238Z,54.51
2022-08-16T08:11:59.928Z,54.16
2022-08-16T08:14:30.418Z,53.80
2022-08-16T08:17:01.566Z,53.71
2022-08-16T08:19:34.025Z,53.62
2022-08-16T08:22:06.031Z,52.90
2022-08-16T08:24:43.989Z,52.42
2022-08-16T08:27:12.463Z,51.57
2022-08-16T08:30:51.031Z,50.94
2022-08-16T08:33:00.814Z,49.76
2022-08-16T08:35:30.012Z,46.95
2022-08-16T08:37:58.268Z,46.05
2022-08-16T08:40:30.527Z,45.34
2022-08-16T08:43:11.917Z,44.83
2022-08-16T08:45:53.321Z,44.50
2022-08-16T08:48:33.863Z,44.43
2022-08-16T08:51:05.180Z,43.41
2022-08-16T08:53:36.246Z,43.60
2022-08-16T08:56:23.158Z,43.09
2022-08-16T08:58:54.686Z,42.87
2022-08-16T09:01:31.833Z,42.73
2022-08-16T09:04:06.052Z,42.94
2022-08-16T09:06:35.177Z,42.58
2022-08-16T09:12:06.426Z,42.45
2022-08-16T09:14:35.865Z,42.19
2022-08-16T09:17:11.703Z,41.77
2022-08-16T09:19:55.292Z,41.50
2022-08-16T09:22:26.382Z,41.15
2022-08-16T09:25:04.426Z,41.01
2022-08-16T09:27:57.311Z,41.22
2022-08-16T09:30:36.426Z,41.75
2022-08-16T09:33:15.325Z,41.06
2022-08-16T09:35:46.888Z,40.15
2022-08-16T09:38:22.798Z,40.50
2022-08-16T09:41:01.914Z,40.79
2022-08-16T09:43:58.857Z,40.31
2022-08-16T09:46:48.288Z,40.50
2022-08-16T09:49:20.044Z,40.10
2022-08-16T09:51:53.718Z,39.82
2022-08-16T09:54:23.261Z,39.69
2022-08-16T09:56:53.784Z,39.13
2022-08-16T09:59:25.754Z,39.00
2022-08-16T10:01:59.798Z,40.10
2022-08-16T10:04:34.245Z,39.76
2022-08-16T10:07:15.316Z,40.05
2022-08-16T10:09:55.737Z,39.63
2022-08-16T10:12:43.551Z,39.00
2022-08-16T10:15:17.206Z,38.75
2022-08-16T10:18:01.381Z,38.68
2022-08-16T10:20:34.118Z,38.48
2022-08-16T10:23:07.221Z,37.65
2022-08-16T10:27:17.873Z,37.80
2022-08-16T10:28:29.686Z,37.99
2022-08-16T10:31:03.442Z,38.35
2022-08-16T10:33:34.315Z,38.31
2022-08-16T10:36:04.480Z,38.26
2022-08-16T10:38:42.140Z,38.30
2022-08-16T10:41:16.095Z,38.18
2022-08-16T10:43:45.314Z,38.41
2022-08-16T10:46:39.188Z,38.46
2022-08-16T10:49:10.382Z,40.13
2022-08-16T10:52:03.408Z,39.94
2022-08-16T10:54:29.097Z,40.23
2022-08-16T10:56:59.040Z,40.87
2022-08-16T10:59:39.028Z,40.32
2022-08-16T11:02:58.929Z,41.48
2022-08-16T11:05:14.166Z,40.50
2022-08-16T11:07:52.226Z,39.97
2022-08-16T11:19:06.056Z,38.34
2022-08-16T11:22:39.678Z,38.15
2022-08-16T11:24:39.693Z,37.78
2022-08-16T11:27:20.115Z,37.53
2022-08-16T11:29:52.227Z,37.80
2022-08-16T11:32:30.086Z,37.87
2022-08-16T11:35:10.855Z,38.61
2022-08-16T11:40:38.398Z,40.55
2022-08-16T11:43:10.132Z,42.02
2022-08-16T11:45:38.999Z,42.78
2022-08-16T11:48:10.887Z,44.97
2022-08-16T11:50:41.076Z,46.46
2022-08-16T11:53:09.862Z,46.00
2022-08-16T11:55:39.160Z,43.93
2022-08-16T11:58:14.375Z,44.83
2022-08-16T12:00:51.996Z,42.72
2022-08-16T12:03:34.439Z,42.54
2022-08-16T12:06:11.244Z,44.55
2022-08-16T12:09:00.896Z,45.76
2022-08-16T12:11:33.444Z,45.64
2022-08-16T12:14:02.162Z,44.71
2022-08-16T12:16:34.476Z,44.86
2022-08-16T12:19:04.305Z,45.74
2022-08-16T12:21:58.394Z,45.95
2022-08-16T12:24:27.527Z,46.23
2022-08-16T12:26:56.319Z,45.45
2022-08-16T12:29:25.789Z,45.25
2022-08-16T12:32:01.224Z,44.13
2022-08-16T12:34:53.265Z,44.36
2022-08-16T12:37:24.818Z,43.48
2022-08-16T12:39:58.027Z,41.64
2022-08-16T12:42:35.412Z,40.50
2022-08-16T12:45:06.269Z,40.27
2022-08-16T12:48:04.839Z,42.44
2022-08-16T12:50:39.095Z,43.66
2022-08-16T12:53:12.494Z,43.16
2022-08-16T12:55:43.806Z,48.04
2022-08-16T12:58:14.240Z,49.24
2022-08-16T13:01:01.602Z,44.11
2022-08-16T13:03:32.261Z,42.34
2022-08-16T13:06:12.580Z,41.46
2022-08-16T13:08:46.564Z,42.21
2022-08-16T13:11:17.741Z,42.17
2022-08-16T13:13:46.407Z,42.10
2022-08-16T13:16:24.855Z,41.15
2022-08-16T13:18:54.537Z,40.73
2022-08-16T13:21:24.150Z,40.95
2022-08-16T13:23:55.386Z,40.50
2022-08-16T13:26:26.402Z,39.55
2022-08-16T13:28:55.417Z,35.66
2022-08-16T13:31:24.258Z,35.78
2022-08-16T13:33:58.858Z,33.19
2022-08-16T13:39:18.259Z,32.74
2022-08-16T13:41:54.066Z,32.59
2022-08-16T13:44:39.214Z,31.78
2022-08-16T13:47:11.490Z,31.79
2022-08-16T13:49:41.505Z,31.66
2022-08-16T13:52:12.492Z,31.51
2022-08-16T13:54:42.320Z,31.80
2022-08-16T13:57:11.783Z,30.27
2022-08-16T13:59:41.108Z,30.14
2022-08-16T14:02:11.355Z,30.25
2022-08-16T14:04:43.985Z,30.50
2022-08-16T14:07:19.682Z,30.41
2022-08-16T14:09:55.298Z,30.60
2022-08-16T14:12:25.803Z,30.70
2022-08-16T14:14:56.603Z,30.75
2022-08-16T14:17:26.857Z,30.76
2022-08-16T14:19:59.734Z,30.89
2022-08-16T14:22:34.858Z,30.79
2022-08-16T14:25:12.300Z,30.60
2022-08-16T14:27:44.894Z,31.19
2022-08-16T14:30:15.881Z,31.07
2022-08-16T14:32:51.051Z,31.19
2022-08-16T14:35:36.601Z,31.58
2022-08-16T14:38:18.711Z,31.81
2022-08-16T14:40:54.762Z,31.84
2022-08-16T14:43:24.239Z,31.87
2022-08-16T14:45:54.657Z,32.25
2022-08-16T14:48:26.199Z,32.20
2022-08-16T14:50:55.735Z,31.96
2022-08-16T14:53:26.470Z,32.39
2022-08-16T14:55:56.635Z,32.46
2022-08-16T14:58:34.699Z,32.44
2022-08-16T15:01:41.505Z,32.28
2022-08-16T15:04:39.653Z,32.06
2022-08-16T15:07:05.186Z,32.08
2022-08-16T15:09:36.532Z,31.57
2022-08-16T15:12:26.786Z,31.18
2022-08-16T15:15:04.402Z,31.18
2022-08-16T15:17:42.482Z,31.55
2022-08-16T15:20:29.194Z,31.45
2022-08-16T15:23:00.877Z,31.73
2022-08-16T15:25:35.572Z,31.27
2022-08-16T15:28:13.048Z,30.94
2022-08-16T15:31:00.319Z,31.07
2022-08-16T15:33:29.539Z,31.04
2022-08-16T15:36:01.721Z,31.09
2022-08-16T15:39:02.294Z,31.19
2022-08-16T15:42:04.172Z,31.53
2022-08-16T15:44:45.074Z,30.80
2022-08-16T15:47:25.826Z,31.24
2022-08-16T15:49:56.093Z,31.16
2022-08-16T15:52:31.685Z,31.33
2022-08-16T15:55:34.638Z,31.36
2022-08-16T15:58:35.308Z,31.62
2022-08-16T16:00:57.718Z,32.01
2022-08-16T16:03:29.273Z,32.43
2022-08-16T16:06:07.087Z,32.79
2022-08-16T16:08:41.712Z,33.13
2022-08-16T16:11:10.458Z,33.23
2022-08-16T16:13:42.353Z,33.32
2022-08-16T16:16:13.408Z,33.48
2022-08-16T16:18:48.784Z,33.99
2022-08-16T16:21:20.331Z,34.45
2022-08-16T16:23:53.727Z,34.10
2022-08-16T16:26:24.854Z,34.85
2022-08-16T16:29:08.122Z,35.00
2022-08-16T16:31:59.244Z,35.26
2022-08-16T16:34:32.310Z,35.21
2022-08-16T16:37:04.182Z,35.41
2022-08-16T16:39:36.523Z,35.33
2022-08-16T16:42:29.173Z,35.75
2022-08-16T16:45:02.073Z,36.12
2022-08-16T16:47:40.853Z,37.02
2022-08-16T16:50:12.596Z,37.80
2022-08-16T16:52:44.655Z,37.70
2022-08-16T16:55:14.897Z,38.19
2022-08-16T16:58:00.469Z,37.95
2022-08-16T17:00:38.120Z,38.33
2022-08-16T17:03:17.092Z,38.62
2022-08-16T17:05:57.397Z,38.80
2022-08-16T17:08:31.683Z,39.18
2022-08-16T17:11:00.247Z,39.90
2022-08-16T17:13:29.213Z,40.40
2022-08-16T17:15:57.893Z,40.63
2022-08-16T17:19:15.690Z,40.50
2022-08-16T17:21:17.561Z,39.97
2022-08-16T17:23:58.257Z,39.62
2022-08-16T17:26:30.263Z,39.46
2022-08-16T17:29:17.022Z,39.10
2022-08-16T17:31:47.244Z,39.19
2022-08-16T17:34:28.553Z,39.57
2022-08-16T17:40:45.794Z,40.05
2022-08-16T17:43:15.262Z,40.37
2022-08-16T17:47:00.166Z,41.22
2022-08-16T17:53:41.789Z,41.18
2022-08-16T17:57:00.569Z,41.17
2022-08-16T17:59:29.402Z,40.92
2022-08-16T18:02:43.517Z,40.47
2022-08-16T18:05:16.518Z,40.44
2022-08-16T18:07:46.191Z,40.27
2022-08-16T18:10:32.745Z,40.40
2022-08-16T18:13:07.703Z,40.75
2022-08-16T18:15:36.470Z,40.64
2022-08-16T18:18:05.463Z,41.08
2022-08-16T18:20:53.130Z,42.15
2022-08-16T18:23:24.783Z,42.15
2022-08-16T18:25:55.859Z,42.97
2022-08-16T18:28:25.298Z,42.53
2022-08-16T18:30:58.760Z,42.19
2022-08-16T18:33:30.313Z,41.99
2022-08-16T18:36:01.197Z,42.32
2022-08-16T18:38:30.220Z,42.94
2022-08-16T18:40:58.589Z,43.52
2022-08-16T18:44:04.807Z,43.62
2022-08-16T18:46:16.084Z,43.51
2022-08-16T18:48:44.328Z,44.33
2022-08-16T18:51:21.613Z,44.05
2022-08-16T18:54:24.609Z,44.28
2022-08-16T18:56:55.325Z,44.23
2022-08-16T18:59:26.488Z,44.36
2022-08-16T19:01:55.517Z,44.67
2022-08-16T19:04:56.754Z,44.81
2022-08-16T19:07:19.181Z,44.53
2022-08-16T19:09:47.571Z,45.07
2022-08-16T19:12:16.331Z,44.66
2022-08-16T19:14:45.658Z,44.62
2022-08-16T19:17:13.877Z,44.33
2022-08-16T19:19:42.161Z,44.43
2022-08-16T19:22:10.733Z,44.23
2022-08-16T19:24:40.469Z,43.83
2022-08-16T19:27:14.016Z,44.29
2022-08-16T19:29:42.410Z,44.11
2022-08-16T19:32:17.840Z,43.96
2022-08-16T19:34:46.140Z,43.72
2022-08-16T19:37:15.132Z,43.83
2022-08-16T19:40:37.877Z,44.10
2022-08-16T19:43:26.282Z,44.39
2022-08-16T19:45:54.969Z,44.27
2022-08-16T19:48:23.550Z,44.18
2022-08-16T19:50:52.097Z,44.65
2022-08-16T19:53:20.742Z,44.65
2022-08-16T19:55:49.076Z,44.75
2022-08-16T19:58:17.459Z,45.20
2022-08-16T20:00:51.055Z,44.73
2022-08-16T20:03:25.749Z,44.66
2022-08-16T20:05:54.380Z,44.62
2022-08-16T20:08:23.468Z,44.78
2022-08-16T20:10:51.780Z,44.62
2022-08-16T20:13:22.274Z,45.10
2022-08-16T20:15:53.080Z,44.74
2022-08-16T20:18:25.494Z,45.00
2022-08-16T20:20:55.888Z,45.37
2022-08-16T20:23:25.323Z,45.18
2022-08-16T20:25:55.735Z,45.20
2022-08-16T20:28:39.379Z,45.12
2022-08-16T20:31:14.474Z,45.55
2022-08-16T20:33:42.867Z,45.43
2022-08-16T20:36:16.574Z,45.77
2022-08-16T20:38:47.706Z,45.31
2022-08-16T20:41:16.345Z,45.69
2022-08-16T20:43:45.598Z,45.62
2022-08-16T20:46:16.124Z,45.52
2022-08-16T20:48:44.339Z,45.50
2022-08-16T20:51:12.775Z,45.37
2022-08-16T20:53:41.745Z,45.49
2022-08-16T20:56:11.210Z,45.20
2022-08-16T20:58:39.704Z,45.56
2022-08-16T21:01:09.895Z,45.22
2022-08-16T21:03:40.003Z,45.35
2022-08-16T21:06:09.898Z,44.95
2022-08-16T21:08:52.303Z,45.17
2022-08-16T21:11:23.915Z,44.80
2022-08-16T21:13:55.355Z,44.66
2022-08-16T21:16:29.068Z,44.66
2022-08-16T21:18:58.886Z,44.97
2022-08-16T21:21:32.030Z,45.07
2022-08-16T21:24:02.409Z,44.78
2022-08-16T21:26:31.474Z,45.02
2022-08-16T21:28:59.954Z,44.89
2022-08-16T21:31:29.919Z,45.10
2022-08-16T21:34:01.845Z,44.86
2022-08-16T21:36:34.553Z,45.40
2022-08-16T21:39:06.970Z,45.87
2022-08-16T21:41:36.348Z,46.00
2022-08-16T21:44:05.226Z,46.28
2022-08-16T21:46:34.330Z,47.01
2022-08-16T21:49:06.217Z,46.61
2022-08-16T21:51:36.486Z,47.05
2022-08-16T21:54:05.042Z,46.93
2022-08-16T21:56:33.698Z,47.70
2022-08-16T21:59:06.585Z,47.67
2022-08-16T22:01:35.149Z,47.77
2022-08-16T22:04:36.689Z,47.50
2022-08-16T22:06:54.404Z,47.58
2022-08-16T22:09:23.209Z,47.68
2022-08-16T22:11:51.689Z,47.73
2022-08-16T22:14:19.923Z,47.90
2022-08-16T22:16:48.096Z,47.77
2022-08-16T22:19:18.378Z,47.84
2022-08-16T22:21:47.166Z,47.85
2022-08-16T22:24:15.367Z,47.98
2022-08-16T22:26:43.851Z,48.29
2022-08-16T22:29:15.170Z,48.55
2022-08-16T22:31:44.592Z,49.08
2022-08-16T22:34:12.932Z,49.22
2022-08-16T22:36:42.807Z,49.16
2022-08-16T22:39:13.100Z,48.95
2022-08-16T22:41:45.482Z,49.04
2022-08-16T22:44:14.125Z,49.09
2022-08-16T22:46:42.520Z,49.21
2022-08-16T22:49:12.069Z,49.28
2022-08-16T22:51:43.049Z,49.76
2022-08-16T22:54:43.892Z,49.98
2022-08-16T22:57:00.490Z,50.06
2022-08-16T22:59:30.476Z,50.39
2022-08-16T23:01:59.210Z,50.50
2022-08-16T23:04:27.551Z,50.60
2022-08-16T23:06:57.390Z,50.60
2022-08-16T23:09:25.838Z,50.69
2022-08-16T23:11:54.297Z,50.64
2022-08-16T23:14:22.548Z,50.76
2022-08-16T23:16:50.769Z,50.96
2022-08-16T23:19:19.153Z,50.90
2022-08-16T23:21:49.455Z,50.92
2022-08-16T23:24:20.658Z,50.88
2022-08-16T23:26:49.803Z,51.07
2022-08-16T23:29:25.625Z,51.21
2022-08-16T23:31:58.425Z,51.43
2022-08-16T23:34:28.917Z,51.65
2022-08-16T23:36:57.896Z,52.00
2022-08-16T23:39:28.325Z,52.78
2022-08-16T23:41:56.839Z,52.07
2022-08-16T23:44:55.664Z,52.09
2022-08-16T23:47:14.830Z,52.33
2022-08-16T23:50:00.280Z,52.23
2022-08-16T23:52:39.266Z,52.01
2022-08-16T23:55:21.063Z,51.80
2022-08-16T23:57:49.651Z,51.49
